Time;durP1;ratioP1;P1;durP2;ratioP2;P2;SDS_P1;SDS_P2;PMS_P1;PMS_P2;Temp;Humidity;BMP_temperature;BMP_pressure;BME280_temperature;BME280_humidity;BME280_pressure;Samples;Min_cycle;Max_cycle;Signal;HPM_P1;HPM_P2
2022/09/29 00:01:44;;;;;;;4.63;1.77;;;17.60;99.30;;;17.95;63.37;94084.06;5027460;28;20467;-56
2022/09/29 00:04:12;;;;;;;2.43;1.27;;;17.60;99.40;;;17.95;63.70;94081.41;5027201;28;20472;-53
2022/09/29 00:06:40;;;;;;;1.40;1.27;;;17.60;99.50;;;17.94;64.07;94077.09;5027252;28;20452;-52
2022/09/29 00:09:08;;;;;;;6.33;2.00;;;17.60;99.60;;;17.95;63.93;94076.88;5027050;28;20500;-54
2022/09/29 00:11:35;;;;;;;5.93;2.13;;;17.60;99.90;;;17.94;64.55;94080.59;5024564;28;20453;-57
2022/09/29 00:14:02;;;;;;;5.83;2.00;;;17.60;99.90;;;17.92;64.25;94083.44;5026751;28;20483;-54
2022/09/29 00:16:29;;;;;;;4.00;2.00;;;17.60;99.80;;;17.92;64.45;94077.28;5027498;28;20456;-56
2022/09/29 00:18:57;;;;;;;2.57;2.30;;;17.50;99.90;;;17.89;64.16;94078.53;5026782;28;20499;-55
2022/09/29 00:21:24;;;;;;;4.40;2.53;;;17.50;99.90;;;17.88;64.20;94086.69;5027052;28;20543;-56
2022/09/29 00:23:53;;;;;;;2.73;2.53;;;17.50;99.90;;;17.86;64.73;94084.25;5027297;28;20453;-56
2022/09/29 00:26:22;;;;;;;3.93;2.63;;;17.50;99.90;;;17.85;64.57;94087.91;5027435;28;20471;-55
2022/09/29 00:28:51;;;;;;;5.73;2.10;;;17.50;99.90;;;17.83;64.41;94089.97;5027134;28;20496;-56
2022/09/29 00:31:18;;;;;;;4.27;2.00;;;17.50;99.90;;;17.81;64.89;94086.66;5027975;28;20456;-55
2022/09/29 00:33:46;;;;;;;1.70;1.60;;;17.50;99.90;;;17.80;64.44;94086.88;5026064;28;20452;-56
2022/09/29 00:36:15;;;;;;;6.40;2.43;;;17.40;99.90;;;17.77;64.73;94080.13;5026902;28;20461;-56
2022/09/29 00:38:42;;;;;;;3.30;2.03;;;17.40;99.90;;;17.76;65.08;94083.00;5026820;28;20448;-56
2022/09/29 00:41:16;;;;;;;6.43;2.30;;;17.40;99.90;;;17.73;64.97;94079.72;5022951;28;20456;-54
2022/09/29 00:43:56;;;;;;;4.17;2.77;;;17.40;99.90;;;17.71;64.86;94080.94;5024925;28;20983;-55
2022/09/29 00:46:40;;;;;;;17.33;2.70;;;17.30;99.90;;;17.68;65.00;94076.84;5023957;28;20551;-55
2022/09/29 00:49:15;;;;;;;6.13;2.50;;;17.30;99.90;;;17.65;65.31;94071.13;5023484;28;21039;-54
2022/09/29 00:51:45;;;;;;;7.60;2.50;;;17.30;99.90;;;17.63;65.43;94070.50;5026647;28;20445;-54
2022/09/29 00:54:12;;;;;;;2.40;2.20;;;17.30;99.90;;;17.62;65.25;94079.50;5026758;28;20477;-56
2022/09/29 00:56:40;;;;;;;2.27;1.80;;;17.30;99.90;;;17.60;65.14;94073.56;5026715;28;20460;-56
2022/09/29 00:59:09;;;;;;;2.60;2.07;;;17.20;99.90;;;17.56;64.92;94070.50;5026464;28;20484;-55
2022/09/29 01:01:37;;;;;;;2.87;1.93;;;17.20;99.90;;;17.52;65.59;94066.59;5026272;28;20954;-55
2022/09/29 01:04:06;;;;;;;7.10;1.97;;;17.20;99.90;;;17.49;65.23;94067.84;5025941;28;20476;-55
2022/09/29 01:06:36;;;;;;;7.13;1.63;;;17.10;99.90;;;17.47;65.26;94069.03;5025558;28;20465;-55
2022/09/29 01:09:05;;;;;;;4.00;1.60;;;17.10;99.90;;;17.45;65.40;94063.94;5026384;28;21438;-56
2022/09/29 01:11:33;;;;;;;3.03;1.43;;;17.10;99.90;;;17.44;65.96;94075.56;5026256;28;20453;-55
2022/09/29 01:14:03;;;;;;;1.53;1.43;;;17.10;99.90;;;17.42;65.68;94074.97;5026370;28;20477;-55
2022/09/29 01:16:31;;;;;;;3.10;1.60;;;17.00;99.90;;;17.38;65.57;94071.91;5026098;28;20961;-54
2022/09/29 01:18:58;;;;;;;4.10;1.57;;;17.10;99.90;;;17.36;66.08;94073.13;5025826;28;20539;-53
2022/09/29 01:21:34;;;;;;;1.93;1.30;;;17.00;99.90;;;17.34;66.13;94069.84;5022524;28;20893;-55
2022/09/29 01:24:57;;;;;;;3.20;1.90;;;17.00;99.90;;;17.31;65.94;94081.69;5026073;28;20976;-55
2022/09/29 01:28:23;;;;;;;2.83;1.90;;;17.00;99.90;;;17.28;66.76;94083.94;5025783;28;20515;-54
2022/09/29 01:31:13;;;;;;;4.27;2.00;;;16.90;99.90;;;17.25;66.23;94081.69;4986761;28;20472;-56
2022/09/29 01:33:43;;;;;;;4.33;1.77;;;16.90;99.90;;;17.22;66.10;94072.25;5024262;28;20449;-54
2022/09/29 01:36:17;;;;;;;2.40;2.13;;;16.90;99.90;;;17.19;66.39;94089.41;5026005;28;20460;-55
2022/09/29 01:38:56;;;;;;;3.57;1.80;;;16.80;99.90;;;17.16;66.54;94084.50;5025762;28;20962;-55
2022/09/29 01:41:30;;;;;;;6.77;2.10;;;16.80;99.90;;;17.14;66.13;94086.53;5022719;28;20475;-54
2022/09/29 01:44:01;;;;;;;2.40;1.47;;;16.80;99.90;;;17.10;66.67;94090.66;5026107;28;20436;-53
2022/09/29 01:46:31;;;;;;;4.67;1.83;;;16.80;99.90;;;17.07;66.52;94090.19;5022811;28;20551;-53
2022/09/29 01:48:59;;;;;;;4.73;2.20;;;16.70;99.90;;;17.04;66.72;94091.44;5025407;28;20611;-55
2022/09/29 01:51:30;;;;;;;3.50;2.00;;;16.70;99.90;;;17.05;66.64;94090.41;5025800;28;20459;-55
2022/09/29 01:54:00;;;;;;;7.27;2.17;;;16.70;99.90;;;17.06;66.19;94094.69;5025843;28;20467;-55
2022/09/29 01:56:29;;;;;;;3.83;1.20;;;16.70;99.90;;;17.02;66.28;94083.66;5025852;28;20448;-54
2022/09/29 01:58:59;;;;;;;1.60;1.00;;;16.70;99.90;;;17.01;66.57;94089.19;5022228;28;20468;-53
2022/09/29 02:01:32;;;;;;;8.33;1.97;;;16.70;99.90;;;16.98;66.79;94086.91;5025168;28;20445;-52
2022/09/29 02:04:01;;;;;;;6.90;1.70;;;16.70;99.90;;;16.98;66.74;94081.59;5025641;28;20472;-57
2022/09/29 02:06:35;;;;;;;5.50;1.80;;;16.60;99.90;;;16.97;66.91;94090.59;5025259;28;20522;-56
2022/09/29 02:09:03;;;;;;;4.43;2.20;;;16.60;99.90;;;16.98;66.99;94087.72;5025780;28;20579;-55
2022/09/29 02:11:30;;;;;;;4.23;2.30;;;16.70;99.90;;;16.98;67.03;94086.91;5024151;28;20611;-54
2022/09/29 02:14:00;;;;;;;11.70;1.93;;;16.60;99.90;;;16.98;67.05;94089.56;5025146;28;21012;-56
2022/09/29 02:16:31;;;;;;;6.20;2.30;;;16.60;99.90;;;16.97;67.37;94091.38;5025429;28;20484;-55
2022/09/29 02:19:01;;;;;;;8.47;2.70;;;16.60;99.90;;;16.96;67.15;94092.44;5028076;28;20502;-55
2022/09/29 02:21:28;;;;;;;3.13;2.83;;;16.60;99.90;;;16.97;67.28;94102.03;5029769;28;20479;-53
2022/09/29 02:23:56;;;;;;;5.33;2.40;;;16.60;99.90;;;16.98;67.10;94092.22;5029233;28;20499;-54
2022/09/29 02:26:23;;;;;;;9.43;2.07;;;16.60;99.90;;;16.98;67.16;94093.03;5029635;28;20980;-54
2022/09/29 02:28:51;;;;;;;7.50;2.23;;;16.60;99.90;;;16.99;67.16;94085.88;5029302;28;20840;-56
2022/09/29 02:31:18;;;;;;;3.60;2.07;;;16.60;99.90;;;16.99;67.65;94089.38;5026346;28;20514;-54
2022/09/29 02:33:47;;;;;;;4.60;2.40;;;16.70;99.90;;;17.02;67.12;94093.44;5029256;28;20457;-55
2022/09/29 02:36:21;;;;;;;3.07;1.77;;;16.70;99.90;;;17.03;66.94;94092.44;5029476;28;20460;-55
2022/09/29 02:38:51;;;;;;;5.03;2.70;;;16.70;99.90;;;17.05;67.48;94086.94;5026804;28;20460;-55
2022/09/29 02:41:35;;;;;;;6.60;2.67;;;16.70;99.90;;;17.05;67.04;94082.44;5029125;28;21018;-53
2022/09/29 02:44:20;;;;;;;6.47;2.70;;;16.70;99.90;;;17.11;67.11;94084.28;5027441;28;20522;-53
2022/09/29 02:47:04;;;;;;;3.03;2.40;;;16.70;99.90;;;17.13;66.74;94079.59;5027847;28;20456;-53
2022/09/29 02:49:49;;;;;;;16.13;3.47;;;16.80;99.90;;;17.08;66.98;94062.63;5026514;28;21423;-55
2022/09/29 02:52:23;;;;;;;4.77;2.30;;;16.80;99.90;;;16.99;67.07;94059.31;5026359;28;20766;-53
2022/09/29 02:55:00;;;;;;;2.30;2.00;;;16.70;99.90;;;16.93;67.15;94057.47;5028851;28;20552;-55
2022/09/29 02:57:32;;;;;;;8.50;2.70;;;16.70;99.90;;;16.87;66.93;94063.56;5028221;28;20525;-54
2022/09/29 03:00:07;;;;;;;11.30;3.30;;;16.60;99.90;;;16.83;67.35;94065.78;5025125;28;20591;-54
2022/09/29 03:02:34;;;;;;;3.53;2.27;;;16.50;99.90;;;16.80;67.26;94066.97;5028582;28;20523;-55
2022/09/29 03:05:03;;;;;;;13.70;3.63;;;16.50;99.90;;;16.77;67.40;94063.91;5028395;28;21004;-55
2022/09/29 03:07:30;;;;;;;4.67;1.97;;;16.50;99.90;;;16.76;67.50;94076.38;5028253;28;20444;-53
2022/09/29 03:09:57;;;;;;;5.20;2.17;;;16.40;99.90;;;16.76;67.82;94084.34;5026308;28;21048;-55
2022/09/29 03:12:25;;;;;;;2.90;2.23;;;16.40;99.90;;;16.76;67.94;94094.97;5027795;28;20464;-56
2022/09/29 03:14:52;;;;;;;7.90;2.70;;;16.40;99.90;;;16.75;68.16;94101.28;5028886;28;20858;-54
2022/09/29 03:17:19;;;;;;;5.67;2.07;;;16.40;99.90;;;16.73;68.59;94097.19;5028044;28;20453;-57
2022/09/29 03:19:47;;;;;;;5.20;2.83;;;16.40;99.90;;;16.71;68.36;94096.56;5028480;28;20476;-55
2022/09/29 03:22:16;;;;;;;7.00;2.40;;;16.40;99.90;;;16.71;68.17;94102.69;5028329;28;20457;-54
2022/09/29 03:24:43;;;;;;;2.73;2.20;;;16.40;99.90;;;16.70;68.26;94105.53;5028234;28;20532;-53
2022/09/29 03:27:11;;;;;;;9.33;2.30;;;16.40;99.90;;;16.67;68.90;94128.81;5028111;28;20452;-53
2022/09/29 03:29:38;;;;;;;4.10;2.17;;;16.30;99.90;;;16.66;68.56;94126.34;5026964;28;20500;-54
2022/09/29 03:32:05;;;;;;;16.23;2.53;;;16.30;99.90;;;16.64;68.74;94145.13;5027058;28;20461;-56
2022/09/29 03:34:32;;;;;;;3.43;2.27;;;16.30;99.90;;;16.63;68.49;94142.69;5026622;28;20560;-56
2022/09/29 03:37:00;;;;;;;6.23;2.30;;;16.30;99.90;;;16.61;68.99;94136.75;5025758;28;20479;-53
2022/09/29 03:39:28;;;;;;;3.63;2.17;;;16.30;99.90;;;16.58;68.73;94150.41;5026614;28;20492;-53
2022/09/29 03:41:56;;;;;;;4.53;2.10;;;16.20;99.90;;;16.56;68.59;94141.81;5028564;28;20446;-56
2022/09/29 03:44:23;;;;;;;10.63;2.00;;;16.20;99.90;;;16.50;69.15;94138.13;5023103;28;20481;-55
2022/09/29 03:46:50;;;;;;;2.80;2.10;;;16.20;99.90;;;16.50;68.93;94130.16;5025088;28;20941;-55
2022/09/29 03:49:18;;;;;;;7.87;2.33;;;16.20;99.90;;;16.49;69.16;94137.28;5027566;28;20866;-53
2022/09/29 03:51:45;;;;;;;10.37;2.73;;;16.20;99.90;;;16.47;68.85;94136.66;5026373;28;20539;-55
2022/09/29 03:54:12;;;;;;;7.23;2.60;;;16.20;99.90;;;16.48;68.89;94140.97;5026982;28;20989;-54
2022/09/29 03:56:41;;;;;;;2.70;2.00;;;16.20;99.90;;;16.49;69.45;94124.00;5025593;28;20457;-54
2022/09/29 03:59:10;;;;;;;11.83;2.60;;;16.20;99.90;;;16.56;69.57;94126.72;5026019;28;20560;-55
2022/09/29 04:01:38;;;;;;;11.63;2.40;;;16.20;99.90;;;16.66;68.90;94113.09;5026331;28;20547;-54
2022/09/29 04:04:05;;;;;;;4.70;2.13;;;16.30;99.90;;;16.68;68.53;94129.63;5026991;28;20489;-55
2022/09/29 04:06:32;;;;;;;8.03;2.60;;;16.30;99.90;;;16.66;68.40;94126.34;5026483;28;20570;-54
2022/09/29 04:09:00;;;;;;;4.40;2.00;;;16.30;99.90;;;16.64;68.14;94117.78;5027138;28;20492;-55
2022/09/29 04:11:27;;;;;;;8.50;3.27;;;16.30;99.90;;;16.62;68.32;94119.78;5027132;28;20499;-52
2022/09/29 04:13:56;;;;;;;3.57;1.80;;;16.30;99.90;;;16.60;68.11;94105.91;5026970;28;20452;-55
2022/09/29 04:16:23;;;;;;;6.63;2.10;;;16.30;99.90;;;16.58;68.03;94107.94;5025134;28;20459;-54
2022/09/29 04:18:51;;;;;;;4.90;2.50;;;16.20;99.90;;;16.57;68.34;94103.63;5025022;28;20868;-53
2022/09/29 04:21:18;;;;;;;3.10;2.40;;;16.30;99.90;;;16.59;68.48;94114.88;5025298;28;20453;-55
2022/09/29 04:23:45;;;;;;;7.23;2.30;;;16.20;99.90;;;16.58;68.41;94098.13;5024850;28;20449;-53
2022/09/29 04:26:13;;;;;;;3.47;2.10;;;16.20;99.90;;;16.56;68.29;94110.78;5024926;28;20849;-55
2022/09/29 04:28:41;;;;;;;8.77;2.80;;;16.20;99.90;;;16.52;68.25;94093.59;5025690;28;20511;-54
2022/09/29 04:31:09;;;;;;;2.60;2.10;;;16.20;99.90;;;16.51;68.09;94097.25;5026575;28;20739;-54
2022/09/29 04:33:38;;;;;;;6.57;2.27;;;16.20;99.90;;;16.49;68.35;94104.59;5028318;28;20513;-52
2022/09/29 04:36:05;;;;;;;8.50;2.73;;;16.20;99.90;;;16.45;68.50;94109.50;5026816;28;21083;-53
2022/09/29 04:38:33;;;;;;;4.40;2.70;;;16.10;99.90;;;16.43;68.40;94103.53;5026266;28;20448;-54
2022/09/29 04:41:00;;;;;;;10.63;2.50;;;16.10;99.90;;;16.43;68.70;94111.50;5025092;28;20484;-55
2022/09/29 04:43:27;;;;;;;10.63;2.70;;;16.10;99.90;;;16.43;68.78;94108.84;5024576;28;20528;-56
2022/09/29 04:46:03;;;;;;;7.50;3.37;;;16.10;99.90;;;16.42;68.83;94109.06;5021111;28;20895;-56
2022/09/29 04:48:31;;;;;;;18.73;4.90;;;16.10;99.90;;;16.40;68.64;94105.78;5024866;28;20531;-55
2022/09/29 04:50:59;;;;;;;20.00;10.00;;;16.10;99.90;;;16.38;68.92;94100.66;5021356;28;20579;-55
2022/09/29 04:53:26;;;;;;;8.80;5.23;;;16.10;99.90;;;16.35;68.72;94098.41;5025052;28;20449;-53
2022/09/29 04:55:53;;;;;;;12.73;5.23;;;16.00;99.90;;;16.35;68.97;94102.91;5026408;28;20992;-55
2022/09/29 04:58:21;;;;;;;9.33;3.83;;;16.00;99.90;;;16.36;68.91;94104.53;5023240;28;20456;-55
2022/09/29 05:00:48;;;;;;;4.63;3.83;;;16.00;99.90;;;16.37;69.22;94111.47;5025688;28;20542;-57
2022/09/29 05:03:15;;;;;;;14.27;4.93;;;16.00;99.90;;;16.43;69.25;94119.47;5024886;28;21012;-55
2022/09/29 05:05:44;;;;;;;25.30;5.27;;;16.10;99.90;;;16.54;69.05;94112.00;5024295;28;20465;-56
2022/09/29 05:08:11;;;;;;;23.93;4.37;;;16.20;99.90;;;16.64;68.67;94113.28;5025750;28;20452;-57
2022/09/29 05:10:38;;;;;;;17.10;5.57;;;16.30;99.90;;;16.71;68.63;94097.38;5024350;28;20569;-56
2022/09/29 05:13:06;;;;;;;10.50;4.13;;;16.40;99.90;;;16.71;68.76;94102.69;5025375;28;20530;-55
2022/09/29 05:15:33;;;;;;;14.03;4.67;;;16.40;99.90;;;16.72;68.75;94119.47;5025336;28;20472;-55
2022/09/29 05:18:02;;;;;;;9.00;4.73;;;16.40;99.90;;;16.70;68.09;94118.81;5025269;28;20448;-56
2022/09/29 05:20:30;;;;;;;8.23;3.93;;;16.40;99.90;;;16.67;68.33;94118.19;5024880;28;20564;-56
2022/09/29 05:23:00;;;;;;;13.97;5.00;;;16.40;99.90;;;16.67;68.27;94128.81;5025175;28;20536;-54
2022/09/29 05:25:27;;;;;;;10.53;5.83;;;16.30;99.90;;;16.68;68.34;94129.63;5025600;28;20472;-55
2022/09/29 05:27:55;;;;;;;9.23;4.70;;;16.30;99.90;;;16.72;68.77;94135.38;5024467;28;20514;-56
2022/09/29 05:30:22;;;;;;;8.10;5.00;;;16.40;99.90;;;16.75;69.30;94135.81;5024343;28;20562;-57
2022/09/29 05:32:49;;;;;;;8.83;4.30;;;16.40;99.90;;;16.78;68.57;94140.72;5024394;28;20518;-54
2022/09/29 05:35:17;;;;;;;14.23;5.83;;;16.40;99.90;;;16.83;68.57;94140.94;5025341;28;20480;-54
2022/09/29 05:37:45;;;;;;;21.93;5.87;;;16.50;99.90;;;16.88;68.45;94150.22;5024330;28;20464;-55
2022/09/29 05:40:14;;;;;;;14.17;5.80;;;16.50;99.90;;;16.94;68.50;94149.41;5025770;28;20902;-56
2022/09/29 05:42:41;;;;;;;17.53;4.63;;;16.50;99.90;;;17.00;68.49;94148.63;5025776;28;20910;-55
2022/09/29 05:45:10;;;;;;;10.23;4.80;;;16.60;99.90;;;17.11;68.39;94134.78;5025348;28;20551;-55
2022/09/29 05:47:42;;;;;;;9.77;4.43;;;16.70;99.90;;;17.26;68.28;94136.47;5025410;28;20457;-56
2022/09/29 05:50:10;;;;;;;7.07;4.93;;;16.80;99.90;;;17.39;68.03;94153.28;5025409;28;20492;-55
2022/09/29 05:52:37;;;;;;;11.50;5.43;;;17.00;99.90;;;17.54;67.47;94134.50;5025157;28;20449;-54
2022/09/29 05:55:08;;;;;;;13.00;5.77;;;17.10;99.90;;;17.72;67.67;94123.31;5025771;28;20477;-56
2022/09/29 05:57:37;;;;;;;14.73;5.90;;;17.30;99.90;;;18.00;66.92;94146.28;5021601;28;20524;-57
2022/09/29 06:00:06;;;;;;;12.77;4.90;;;17.50;99.90;;;18.21;66.71;94150.59;5025103;28;21038;-53
2022/09/29 06:02:33;;;;;;;10.77;5.30;;;17.70;99.90;;;18.45;66.17;94150.97;5025035;28;20488;-54
2022/09/29 06:05:01;;;;;;;15.87;4.50;;;17.90;99.90;;;18.66;65.87;94151.78;5021860;28;20571;-55
2022/09/29 06:07:28;;;;;;;7.70;3.77;;;18.10;99.90;;;18.89;65.52;94146.03;5024984;28;20452;-56
2022/09/29 06:09:55;;;;;;;6.03;4.27;;;18.40;99.90;;;19.12;64.40;94145.56;5023924;28;20488;-53
2022/09/29 06:12:22;;;;;;;3.90;3.60;;;18.60;99.90;;;19.30;64.48;94142.19;5025322;28;20858;-54
2022/09/29 06:14:51;;;;;;;10.17;4.27;;;18.80;99.90;;;19.48;63.82;94154.84;5025306;28;20483;-55
2022/09/29 06:17:19;;;;;;;12.00;5.70;;;19.00;99.90;;;19.66;63.15;94136.28;5024996;28;20455;-56
2022/09/29 06:19:46;;;;;;;14.07;4.00;;;19.10;99.90;;;19.88;62.58;94144.78;5025582;28;20831;-55
2022/09/29 06:22:13;;;;;;;9.10;3.20;;;19.30;99.90;;;20.06;62.06;94138.72;5024876;28;20449;-54
2022/09/29 06:24:40;;;;;;;6.83;4.20;;;19.50;99.90;;;20.21;61.61;94140.25;5025324;28;20690;-55
2022/09/29 06:27:08;;;;;;;5.73;3.50;;;19.70;99.60;;;20.42;61.00;94150.53;5024744;28;20456;-56
2022/09/29 06:29:35;;;;;;;7.60;3.13;;;19.90;99.30;;;20.71;60.54;94156.28;5025350;28;20488;-56
2022/09/29 06:32:04;;;;;;;4.73;3.07;;;20.10;99.20;;;21.01;60.25;94163.59;5025128;28;20456;-56
2022/09/29 06:34:31;;;;;;;16.50;3.20;;;20.40;99.20;;;21.31;59.30;94149.47;5025438;28;20477;-54
2022/09/29 06:39:43;;;;;;;17.03;3.07;;;21.00;97.70;;;22.07;57.63;94159.81;5021706;28;20531;-56
2022/09/29 06:42:11;;;;;;;8.43;2.60;;;21.50;97.30;;;22.46;56.92;94161.09;5024830;28;20452;-56
2022/09/29 06:44:38;;;;;;;7.07;2.40;;;21.80;96.60;;;22.87;55.63;94154.00;5024660;28;20487;-54
2022/09/29 06:47:07;;;;;;;12.63;2.80;;;22.20;95.80;;;23.18;54.64;94157.38;5025084;28;20503;-57
2022/09/29 06:49:34;;;;;;;5.13;2.70;;;22.60;95.10;;;23.32;54.83;94154.47;5025106;28;20925;-56
2022/09/29 06:52:02;;;;;;;6.37;2.10;;;22.80;94.30;;;23.42;53.94;94154.66;5024912;28;20453;-55
2022/09/29 06:54:30;;;;;;;11.70;2.67;;;22.90;93.70;;;23.48;53.98;94151.03;5024573;28;20985;-55
2022/09/29 06:56:57;;;;;;;4.37;1.93;;;23.00;93.20;;;23.58;53.28;94163.84;5025269;28;20452;-56
2022/09/29 06:59:24;;;;;;;10.13;2.40;;;23.10;92.80;;;23.69;52.67;94172.91;5024629;28;20637;-54
2022/09/29 07:01:52;;;;;;;7.47;2.60;;;23.20;92.40;;;23.73;52.66;94168.69;5024904;28;20532;-57
2022/09/29 07:04:21;;;;;;;8.93;1.80;;;23.20;92.20;;;23.75;52.90;94174.63;5024829;28;20878;-55
2022/09/29 07:06:48;;;;;;;10.27;2.00;;;23.20;91.80;;;23.78;52.94;94179.50;5028451;28;20460;-57
2022/09/29 07:09:15;;;;;;;3.10;1.70;;;23.30;91.50;;;23.93;52.56;94170.97;5028112;28;20472;-55
2022/09/29 07:11:45;;;;;;;8.53;1.87;;;23.40;91.50;;;24.15;52.02;94174.63;5025561;28;20463;-56
2022/09/29 07:14:13;;;;;;;7.83;1.80;;;23.60;91.20;;;24.45;51.97;94172.69;5027958;28;21003;-55
2022/09/29 07:16:40;;;;;;;11.73;2.50;;;23.80;91.20;;;24.82;51.53;94174.94;5028358;28;20448;-55
2022/09/29 07:19:08;;;;;;;7.40;2.10;;;24.20;91.30;;;25.10;51.51;94171.31;5027648;28;20467;-55
2022/09/29 07:21:36;;;;;;;5.43;2.00;;;24.50;90.40;;;25.26;50.76;94166.94;5028130;28;20453;-54
2022/09/29 07:24:04;;;;;;;7.53;2.20;;;24.70;89.30;;;25.53;50.52;94160.84;5027747;28;21406;-55
2022/09/29 07:26:31;;;;;;;15.63;2.60;;;24.90;88.60;;;25.76;49.78;94149.81;5028163;28;20527;-55
2022/09/29 07:28:59;;;;;;;7.33;2.00;;;25.20;86.70;;;25.88;48.23;94146.97;5027942;28;20452;-56
2022/09/29 07:31:26;;;;;;;3.33;2.50;;;25.40;82.70;;;25.95;48.57;94152.97;5027262;28;20499;-54
2022/09/29 07:33:53;;;;;;;6.77;2.20;;;25.50;82.70;;;26.16;48.59;94158.59;5026555;28;20522;-56
2022/09/29 07:36:21;;;;;;;4.93;2.07;;;25.70;81.40;;;26.40;47.93;94164.50;5027488;28;20468;-56
2022/09/29 07:38:51;;;;;;;11.17;2.67;;;25.90;80.60;;;26.56;47.36;94164.63;5027955;28;20459;-53
2022/09/29 07:41:21;;;;;;;5.83;3.00;;;26.20;79.50;;;26.68;47.23;94161.75;5027632;28;20451;-58
2022/09/29 07:43:48;;;;;;;14.03;3.07;;;26.30;78.00;;;26.84;46.84;94166.22;5027747;28;20471;-55
2022/09/29 07:46:16;;;;;;;8.17;3.00;;;26.50;76.60;;;26.93;46.45;94180.03;5027722;28;20510;-57
2022/09/29 07:48:43;;;;;;;19.30;3.77;;;26.60;75.60;;;27.08;45.61;94179.31;5028363;28;20456;-53
2022/09/29 07:51:12;;;;;;;24.47;3.00;;;26.70;74.30;;;27.38;45.81;94177.94;5027448;28;20495;-57
2022/09/29 07:53:40;;;;;;;12.67;2.90;;;27.00;73.70;;;27.69;45.15;94179.69;5027440;28;20459;-56
2022/09/29 07:56:10;;;;;;;7.77;3.17;;;27.30;73.10;;;27.87;44.86;94186.50;5028120;28;20831;-55
2022/09/29 07:58:37;;;;;;;7.90;2.97;;;27.40;71.80;;;27.99;44.00;94185.50;5026687;28;20456;-57
2022/09/29 08:01:06;;;;;;;19.80;3.93;;;27.60;70.30;;;28.07;44.16;94190.38;5028022;28;20484;-57
2022/09/29 08:03:33;;;;;;;6.40;3.03;;;27.70;69.80;;;28.28;43.48;94195.84;5027002;28;20515;-55
2022/09/29 08:06:01;;;;;;;9.57;3.37;;;27.90;68.70;;;28.54;43.58;94196.69;5027014;28;20479;-56
2022/09/29 08:08:28;;;;;;;13.53;3.03;;;28.10;67.70;;;28.66;43.40;94202.69;5027012;28;20468;-57
2022/09/29 08:11:03;;;;;;;9.80;2.60;;;28.20;66.40;;;28.72;42.20;94207.03;5026627;28;20518;-56
2022/09/29 08:13:32;;;;;;;7.53;2.93;;;28.30;65.70;;;28.86;42.68;94207.31;5027146;28;20502;-55
2022/09/29 08:16:00;;;;;;;9.50;2.67;;;28.40;65.40;;;29.13;41.60;94217.03;5027024;28;20476;-57
2022/09/29 08:18:27;;;;;;;11.93;3.60;;;28.60;64.00;;;29.39;40.80;94220.56;5026987;28;20479;-56
2022/09/29 08:20:55;;;;;;;6.67;2.77;;;28.90;62.50;;;29.63;41.16;94215.31;5026730;28;20511;-53
2022/09/29 08:23:22;;;;;;;8.90;3.40;;;29.10;61.70;;;29.94;40.04;94214.44;5027350;28;20625;-56
2022/09/29 08:25:50;;;;;;;3.67;2.67;;;29.30;61.00;;;30.26;40.32;94211.31;5025209;28;20785;-57
2022/09/29 08:28:17;;;;;;;8.00;3.50;;;29.60;60.30;;;30.58;39.67;94207.31;5027129;28;20572;-57
2022/09/29 08:30:46;;;;;;;19.90;3.37;;;29.90;59.30;;;30.86;39.02;94207.66;5026636;28;20324;-56
2022/09/29 08:33:14;;;;;;;12.33;2.83;;;30.10;58.30;;;30.97;38.76;94217.41;5025127;28;20201;-56
2022/09/29 08:35:41;;;;;;;5.43;2.63;;;30.30;57.60;;;30.75;38.78;94215.91;5026667;28;20225;-55
2022/09/29 08:38:08;;;;;;;6.40;3.63;;;30.20;56.50;;;30.35;38.78;94209.63;5025522;28;20578;-55
2022/09/29 08:40:36;;;;;;;10.13;3.07;;;30.00;56.60;;;29.83;38.65;94211.75;5026430;28;20241;-56
2022/09/29 08:43:09;;;;;;;16.93;3.90;;;29.50;56.10;;;29.36;39.12;94210.25;5027063;28;20334;-55
2022/09/29 08:45:41;;;;;;;10.93;3.27;;;29.10;55.90;;;29.10;38.86;94206.75;5023290;28;20308;-56
2022/09/29 08:48:14;;;;;;;16.30;2.80;;;28.70;56.80;;;28.95;39.00;94216.50;5026358;28;20444;-55
2022/09/29 08:50:43;;;;;;;3.97;2.70;;;28.50;56.80;;;28.71;38.82;94204.59;5023574;28;20551;-55
2022/09/29 08:53:14;;;;;;;11.50;2.10;;;28.30;56.50;;;28.32;38.66;94208.56;5026668;28;20538;-56
2022/09/29 08:55:46;;;;;;;3.97;2.70;;;27.90;55.70;;;28.29;39.58;94209.09;5022607;28;20476;-54
2022/09/29 08:58:15;;;;;;;8.43;2.47;;;27.80;57.00;;;28.58;39.87;94209.47;5026259;28;20480;-56
2022/09/29 09:00:48;;;;;;;5.97;3.00;;;27.90;57.50;;;28.98;38.51;94210.53;5026418;28;20476;-55
2022/09/29 09:03:55;;;;;;;6.67;2.13;;;28.20;57.20;;;29.31;37.26;94219.22;5024545;28;20791;-55
2022/09/29 09:06:35;;;;;;;15.13;2.57;;;28.50;55.90;;;29.38;37.22;94207.28;4978400;28;20467;-56
2022/09/29 09:09:24;;;;;;;3.03;1.50;;;28.60;55.50;;;29.26;36.96;94212.97;5026327;28;20575;-56
2022/09/29 09:12:05;;;;;;;5.10;1.73;;;28.60;54.40;;;28.97;36.94;94208.91;5025967;28;20859;-54
2022/09/29 09:14:50;;;;;;;11.67;1.43;;;28.40;54.10;;;28.49;36.97;94212.91;5025936;28;20476;-56
2022/09/29 09:17:27;;;;;;;10.07;2.10;;;28.00;52.90;;;27.95;37.66;94203.28;5026013;28;20983;-56
2022/09/29 09:20:09;;;;;;;4.23;2.10;;;27.60;53.80;;;27.57;37.87;94202.59;5023518;28;20482;-56
2022/09/29 09:22:42;;;;;;;3.73;1.53;;;27.20;54.30;;;27.20;38.37;94204.25;5023092;28;20456;-57
2022/09/29 09:25:19;;;;;;;5.30;1.97;;;26.80;54.50;;;26.87;38.60;94199.97;5026263;28;20479;-54
2022/09/29 09:27:50;;;;;;;6.90;1.73;;;26.50;55.00;;;26.63;39.44;94203.81;5023116;28;20976;-55
2022/09/29 09:30:18;;;;;;;11.67;3.47;;;26.30;55.80;;;26.42;39.91;94189.31;5025673;28;20465;-54
2022/09/29 09:32:48;;;;;;;6.97;2.20;;;26.00;56.20;;;26.34;39.67;94203.25;5025401;28;20452;-56
2022/09/29 09:35:29;;;;;;;4.00;1.33;;;25.90;56.50;;;26.17;39.52;94192.56;5026797;28;20523;-57
2022/09/29 09:38:00;;;;;;;4.47;1.83;;;25.70;56.30;;;26.04;39.54;94187.56;5024049;28;20448;-56
2022/09/29 09:40:30;;;;;;;4.93;1.83;;;25.60;56.50;;;26.14;40.35;94193.09;5025404;28;20559;-57
2022/09/29 09:43:01;;;;;;;7.87;1.60;;;25.60;57.00;;;26.37;39.01;94191.97;5026031;28;20439;-54
2022/09/29 09:45:31;;;;;;;2.87;1.70;;;25.80;56.20;;;26.57;39.18;94195.91;5025630;28;20983;-55
2022/09/29 09:48:03;;;;;;;5.10;1.53;;;26.00;56.20;;;26.75;38.60;94202.84;5021866;28;20537;-57
2022/09/29 09:50:41;;;;;;;3.03;1.43;;;26.10;56.00;;;26.79;38.06;94195.88;5025716;28;20522;-55
2022/09/29 09:53:13;;;;;;;2.60;1.37;;;26.20;55.30;;;26.87;38.02;94197.28;5023114;28;20448;-57
2022/09/29 09:55:42;;;;;;;4.50;1.13;;;26.30;55.10;;;26.94;37.48;94189.75;5025256;28;20476;-57
2022/09/29 09:58:30;;;;;;;2.57;1.27;;;26.40;54.10;;;26.81;37.57;94191.81;5025086;28;21328;-55
2022/09/29 10:00:58;;;;;;;5.90;1.73;;;26.30;54.00;;;26.73;38.09;94195.00;5021830;28;21023;-56
2022/09/29 10:03:26;;;;;;;4.67;1.57;;;26.20;54.30;;;26.77;38.96;94190.72;5026017;28;20452;-57
2022/09/29 10:05:54;;;;;;;3.13;1.80;;;26.30;55.10;;;26.91;38.66;94199.19;5025481;28;20625;-57
2022/09/29 10:08:24;;;;;;;3.53;1.87;;;26.30;55.20;;;27.02;38.36;94197.38;5022563;28;20506;-55
2022/09/29 10:10:51;;;;;;;4.23;1.87;;;26.40;55.20;;;27.23;38.92;94184.00;5022875;28;20578;-56
2022/09/29 10:13:19;;;;;;;6.90;2.07;;;26.60;55.20;;;27.40;37.96;94187.38;5026054;28;20448;-56
2022/09/29 10:15:50;;;;;;;8.20;1.80;;;26.70;54.30;;;27.57;38.35;94197.19;5025808;28;20479;-56
2022/09/29 10:18:20;;;;;;;2.40;2.20;;;26.90;54.50;;;27.72;38.25;94183.75;5025831;28;20452;-57
2022/09/29 10:20:48;;;;;;;4.07;1.60;;;27.10;54.50;;;27.89;37.72;94197.88;5024271;28;20477;-58
2022/09/29 10:23:28;;;;;;;1.93;1.57;;;27.30;54.20;;;27.89;36.00;94184.34;5026070;28;20448;-55
2022/09/29 10:26:00;;;;;;;4.27;1.40;;;27.30;52.60;;;27.77;36.55;94191.88;5022271;28;20876;-57
2022/09/29 10:28:31;;;;;;;6.00;1.97;;;27.30;52.70;;;27.76;36.96;94179.44;5025559;28;20524;-56
2022/09/29 10:30:58;;;;;;;3.80;1.77;;;27.20;53.30;;;27.86;37.20;94178.66;5024842;28;20590;-56
2022/09/29 10:33:25;;;;;;;3.50;1.93;;;27.30;53.30;;;27.92;37.70;94185.72;5024833;28;20937;-56